Yasa Ilhan — V7LI2 — position and weather

sailwx.info

Track history (hours):
 
Tides and Currents Weather Stations Pressure Air Temp Water Temp Dewpoint Dewpoint Depression Visibility Wind Speed Wind Dir Waves Ship Positions

Yasa Ilhan

Last reported at 2018-Jun-27 19:36 UTC. Time now 2018-Jul-17 13:30 UTC.
Position S 38°22' E 149°02'.
Warning: this ship's position is 19 days out of date.

Length 191 m; draft 12.8 m.

Type: Cargo ship. MMSI: 538002750.

Date/timePositionNaut miles runAvg speedWind from/ knotsBaromVisibWave heightAir tempDewpointWater temp
2018-Jun-27 19:36S 38°22' E 149°02'4613.0
2018-Jun-27 16:05S 38°46' E 148°13'313.2
2018-Jun-27 15:54S 38°47' E 148°09'513.3
2018-Jun-27 15:29S 38°49' E 148°03'713.5
2018-Jun-27 14:59S 38°52' E 147°55'713.7
2018-Jun-27 14:29S 38°54' E 147°47'713.6
2018-Jun-27 14:00S 38°56' E 147°39'  
2018-Jun-24 11:18S 40°37' E 145°45'412.7
2018-Jun-24 10:59S 40°39' E 145°49'612.7
2018-Jun-24 10:30S 40°41' E 145°57'612.3
2018-Jun-24 10:00S 40°42' E 146°05'612.1
2018-Jun-24 09:30S 40°41' E 146°13'611.9
2018-Jun-24 09:00S 40°39' E 146°20'612.2
2018-Jun-24 08:30S 40°37' E 146°28'4 8.8
2018-Jun-24 08:00S 40°34' E 146°32'612.0
2018-Jun-24 07:30S 40°35' E 146°24'612.2
2018-Jun-24 07:00S 40°35' E 146°16'612.2
2018-Jun-24 06:30S 40°36' E 146°08'611.9
2018-Jun-24 06:00S 40°36' E 146°00'6 3.5
2018-Jun-24 04:13S 40°41' E 145°54'2 9.8
2018-Jun-24 04:00S 40°42' E 145°56'510.4
2018-Jun-24 03:30S 40°45' E 146°02'611.7
2018-Jun-24 03:00S 40°46' E 146°09'611.5
2018-Jun-24 02:30S 40°47' E 146°17'612.0
2018-Jun-24 02:01S 40°46' E 146°24'611.9
2018-Jun-24 01:30S 40°44' E 146°32'611.2
2018-Jun-24 01:00S 40°41' E 146°39'5 9.0
2018-Jun-24 00:30S 40°39' E 146°44'4 8.4
2018-Jun-24 00:00S 40°37' E 146°49'2 4.1
2018-Jun-23 23:30S 40°36' E 146°46'611.9
2018-Jun-23 23:00S 40°38' E 146°39'611.8
2018-Jun-23 22:30S 40°38' E 146°31'713.4
2018-Jun-23 22:00S 40°38' E 146°22'713.5
2018-Jun-23 21:30S 40°38' E 146°13'713.6
2018-Jun-23 21:00S 40°38' E 146°04'713.4
2018-Jun-23 20:30S 40°38' E 145°55'4 8.7
2018-Jun-23 20:00S 40°37' E 146°01'611.6
2018-Jun-23 19:30S 40°37' E 146°08'611.1
2018-Jun-23 19:01S 40°37' E 146°16'611.4
2018-Jun-23 18:30S 40°37' E 146°23'510.8
2018-Jun-23 18:00S 40°37' E 146°30'510.6
2018-Jun-23 17:30S 40°37' E 146°37'510.3
2018-Jun-23 17:00S 40°37' E 146°44'3 5.4
2018-Jun-23 16:30S 40°38' E 146°41'713.8
2018-Jun-23 16:00S 40°39' E 146°32'713.9
2018-Jun-23 15:30S 40°39' E 146°23'713.7
2018-Jun-23 15:00S 40°39' E 146°14'713.8
2018-Jun-23 14:30S 40°39' E 146°05'5 3.7
2018-Jun-23 13:07S 40°35' E 146°02'211.3
2018-Jun-23 12:59S 40°34' E 146°04'611.3
2018-Jun-23 12:30S 40°34' E 146°11'611.0
2018-Jun-23 11:56S 40°34' E 146°19'410.6
2018-Jun-23 11:30S 40°35' E 146°25'510.7
2018-Jun-23 11:00S 40°35' E 146°32'510.4
2018-Jun-23 10:30S 40°35' E 146°39'5 9.8
2018-Jun-23 10:00S 40°35' E 146°46'3 6.2
2018-Jun-23 09:30S 40°38' E 146°46'713.4
2018-Jun-23 09:00S 40°41' E 146°39'713.3
2018-Jun-23 08:30S 40°44' E 146°31'713.3
2018-Jun-23 08:00S 40°47' E 146°23'612.4
2018-Jun-23 07:30S 40°47' E 146°15'611.8
2018-Jun-23 07:00S 40°46' E 146°07'611.9
2018-Jun-23 06:29S 40°45' E 145°59'32 7.5
2018-Jun-23 02:12S 40°16' E 146°18'311.6
2018-Jun-23 01:59S 40°17' E 146°15'613.5
2018-Jun-23 01:30S 40°20' E 146°07'612.0
2018-Jun-23 01:00S 40°22' E 146°00'5 9.8
2018-Jun-23 00:30S 40°24' E 145°54'5 9.7
2018-Jun-23 00:00S 40°27' E 145°49'612.0
2018-Jun-22 23:30S 40°29' E 145°41'7 8.0
2018-Jun-22 22:40S 40°26' E 145°34'213.4
2018-Jun-22 22:30S 40°24' E 145°33'  
Track history (hours):
 
Tides and Currents Weather Stations Pressure Air Temp Water Temp Dewpoint Dewpoint Depression Visibility Wind Speed Wind Dir Waves Ship Positions

Yasa Ilhan

Last reported at 2018-Jun-27 19:36 UTC. Time now 2018-Jul-17 13:30 UTC.
Position S 38°22' E 149°02'.
Warning: this ship's position is 19 days out of date.

Length 191 m; draft 12.8 m.

Type: Cargo ship. MMSI: 538002750.

Date/timePositionNaut miles runAvg speedWind from/ knotsBaromVisibWave heightAir tempDewpointWater temp
2018-Jun-27 19:36S 38°22' E 149°02'4613.0
2018-Jun-27 16:05S 38°46' E 148°13'313.2
2018-Jun-27 15:54S 38°47' E 148°09'513.3
2018-Jun-27 15:29S 38°49' E 148°03'713.5
2018-Jun-27 14:59S 38°52' E 147°55'713.7
2018-Jun-27 14:29S 38°54' E 147°47'713.6
2018-Jun-27 14:00S 38°56' E 147°39'  
2018-Jun-24 11:18S 40°37' E 145°45'412.7
2018-Jun-24 10:59S 40°39' E 145°49'612.7
2018-Jun-24 10:30S 40°41' E 145°57'612.3
2018-Jun-24 10:00S 40°42' E 146°05'612.1
2018-Jun-24 09:30S 40°41' E 146°13'611.9
2018-Jun-24 09:00S 40°39' E 146°20'612.2
2018-Jun-24 08:30S 40°37' E 146°28'4 8.8
2018-Jun-24 08:00S 40°34' E 146°32'612.0
2018-Jun-24 07:30S 40°35' E 146°24'612.2
2018-Jun-24 07:00S 40°35' E 146°16'612.2
2018-Jun-24 06:30S 40°36' E 146°08'611.9
2018-Jun-24 06:00S 40°36' E 146°00'6 3.5
2018-Jun-24 04:13S 40°41' E 145°54'2 9.8
2018-Jun-24 04:00S 40°42' E 145°56'510.4
2018-Jun-24 03:30S 40°45' E 146°02'611.7
2018-Jun-24 03:00S 40°46' E 146°09'611.5
2018-Jun-24 02:30S 40°47' E 146°17'612.0
2018-Jun-24 02:01S 40°46' E 146°24'611.9
2018-Jun-24 01:30S 40°44' E 146°32'611.2
2018-Jun-24 01:00S 40°41' E 146°39'5 9.0
2018-Jun-24 00:30S 40°39' E 146°44'4 8.4
2018-Jun-24 00:00S 40°37' E 146°49'2 4.1
2018-Jun-23 23:30S 40°36' E 146°46'611.9
2018-Jun-23 23:00S 40°38' E 146°39'611.8
2018-Jun-23 22:30S 40°38' E 146°31'713.4
2018-Jun-23 22:00S 40°38' E 146°22'713.5
2018-Jun-23 21:30S 40°38' E 146°13'713.6
2018-Jun-23 21:00S 40°38' E 146°04'713.4
2018-Jun-23 20:30S 40°38' E 145°55'4 8.7
2018-Jun-23 20:00S 40°37' E 146°01'611.6
2018-Jun-23 19:30S 40°37' E 146°08'611.1
2018-Jun-23 19:01S 40°37' E 146°16'611.4
2018-Jun-23 18:30S 40°37' E 146°23'510.8
2018-Jun-23 18:00S 40°37' E 146°30'510.6
2018-Jun-23 17:30S 40°37' E 146°37'510.3
2018-Jun-23 17:00S 40°37' E 146°44'3 5.4
2018-Jun-23 16:30S 40°38' E 146°41'713.8
2018-Jun-23 16:00S 40°39' E 146°32'713.9
2018-Jun-23 15:30S 40°39' E 146°23'713.7
2018-Jun-23 15:00S 40°39' E 146°14'713.8
2018-Jun-23 14:30S 40°39' E 146°05'5 3.7
2018-Jun-23 13:07S 40°35' E 146°02'211.3
2018-Jun-23 12:59S 40°34' E 146°04'611.3
2018-Jun-23 12:30S 40°34' E 146°11'611.0
2018-Jun-23 11:56S 40°34' E 146°19'410.6
2018-Jun-23 11:30S 40°35' E 146°25'510.7
2018-Jun-23 11:00S 40°35' E 146°32'510.4
2018-Jun-23 10:30S 40°35' E 146°39'5 9.8
2018-Jun-23 10:00S 40°35' E 146°46'3 6.2
2018-Jun-23 09:30S 40°38' E 146°46'713.4
2018-Jun-23 09:00S 40°41' E 146°39'713.3
2018-Jun-23 08:30S 40°44' E 146°31'713.3
2018-Jun-23 08:00S 40°47' E 146°23'612.4
2018-Jun-23 07:30S 40°47' E 146°15'611.8
2018-Jun-23 07:00S 40°46' E 146°07'611.9
2018-Jun-23 06:29S 40°45' E 145°59'32 7.5
2018-Jun-23 02:12S 40°16' E 146°18'311.6
2018-Jun-23 01:59S 40°17' E 146°15'613.5
2018-Jun-23 01:30S 40°20' E 146°07'612.0
2018-Jun-23 01:00S 40°22' E 146°00'5 9.8
2018-Jun-23 00:30S 40°24' E 145°54'5 9.7
2018-Jun-23 00:00S 40°27' E 145°49'612.0
2018-Jun-22 23:30S 40°29' E 145°41'7 8.0
2018-Jun-22 22:40S 40°26' E 145°34'213.4
2018-Jun-22 22:30S 40°24' E 145°33'  

Dump ship's entire track history